Aérodrome :
LOGIN :

S'inscrire | Disclaimer

   EN    FR    IT 

 










Légende :    VFR   VFR Marginal   IFR   IFR Intensif   IFR Très Intensif
Visi : 
Plafond : 
>= 8 km
>= 3000ft
5 à 8 km
1000 à 3000 ft
1500m à 5 km
500 à 1000 ft
800 à 1500m
200 à 500 ft
< 800m
< 200 ft
Symboles :   Orages  Brouillard  Fortes neiges  Fortes précipitations  Vent > 20 kt
SIGMETs :   Divers  Orages  Givrage  Turbulence  Onde Orograph.  Cendres Volcan.






- Altitude de l'aérodrome : 364 ft


LFAQ - Albert Bray

DERNIER METAR :
  • 291830Z AUTO 22009KT 9999 BKN027 OVC032 05/03 Q1014

METARs EXPIRÉS :
  • 291800Z AUTO 23008KT 9999 BKN035 05/03 Q1015 NOSIG
  • 291730Z AUTO 24009KT 9999 FEW037 05/03 Q1014 NOSIG
  • 291700Z AUTO 24008KT CAVOK 04/03 Q1014 NOSIG
  • 291630Z AUTO 26010KT CAVOK 06/03 Q1014 NOSIG
  • 291600Z AUTO 26014KT 9999 FEW033 07/03 Q1014 NOSIG

TAF TAF LFAQ
Valide du 29 à 15h jusqu'au 30 à 00h UTC


291400Z 2915/2924 27015KT 9999 SCT030
TEMPO 2915/2916 27015G25KT
BECMG 2916/2919 21010KT



MET'MAP, la Météo Aéronautique d'un coup d'oeil ! - Copyright ORBIFLY Décembre 2007 - Disclaimer

ORBIFLY MET'MAP TEAM :

Programmation & Développement : Alexandra Zaïnal
Sur une idée originale de : Baudouin d'Aumeries
Assistance à la programmation : Marc-Olivier Méhu
Soutien technique & logistique : Manuel Goepfert

Contact : metmap@orbifly.com




SOURCES & CREDITS :

   NOAA